Time;durP1;ratioP1;P1;durP2;ratioP2;P2;SDS_P1;SDS_P2;PMS_P1;PMS_P2;Temp;Humidity;BMP_temperature;BMP_pressure;BME280_temperature;BME280_humidity;BME280_pressure;Samples;Min_cycle;Max_cycle;Signal;HPM_P1;HPM_P2
2021/08/03 00:00:52;;;;;;;0.20;0.20;;;;;;;14.19;69.27;100297.00;5030464;28;20199;-66
2021/08/03 00:03:28;;;;;;;0.30;0.30;;;;;;;14.28;69.70;100311.50;5030427;28;20236;-65
2021/08/03 00:05:57;;;;;;;1.93;0.40;;;;;;;14.29;69.16;100310.50;5043585;28;20204;-66
2021/08/03 00:08:29;;;;;;;0.90;0.37;;;;;;;14.32;69.53;100310.22;5030062;28;20194;-66
2021/08/03 00:11:02;;;;;;;0.33;0.33;;;;;;;14.28;69.06;100308.81;5027130;28;20635;-67
2021/08/03 00:13:33;;;;;;;0.23;0.23;;;;;;;14.20;69.18;100305.94;5026079;28;20232;-67
2021/08/03 00:16:06;;;;;;;0.40;0.40;;;;;;;14.27;69.16;100312.50;5029827;28;20670;-68
2021/08/03 00:18:34;;;;;;;8.43;0.50;;;;;;;14.26;69.30;100316.19;5025404;28;20710;-68
2021/08/03 00:21:02;;;;;;;0.40;0.40;;;;;;;14.18;70.02;100303.38;5029903;28;20687;-68
2021/08/03 00:23:31;;;;;;;0.43;0.43;;;;;;;14.14;70.63;100311.91;5028136;28;20197;-68
2021/08/03 00:26:00;;;;;;;1.40;0.50;;;;;;;14.17;70.24;100315.19;5028178;28;20198;-67
2021/08/03 00:28:28;;;;;;;0.40;0.40;;;;;;;14.17;70.35;100319.72;5026275;28;20287;-68
2021/08/03 00:30:57;;;;;;;2.20;0.50;;;;;;;14.19;70.05;100315.03;5028026;28;20201;-68
2021/08/03 00:33:25;;;;;;;0.30;0.30;;;;;;;14.22;70.02;100321.03;5029918;28;20218;-68
2021/08/03 00:35:53;;;;;;;1.27;0.47;;;;;;;14.21;70.46;100307.66;5028354;28;20301;-67
2021/08/03 00:38:23;;;;;;;0.40;0.40;;;;;;;14.12;70.22;100297.69;5026777;28;20210;-67
2021/08/03 00:40:56;;;;;;;0.70;0.70;;;;;;;14.23;69.26;100302.97;5027348;28;20206;-66
2021/08/03 00:43:25;;;;;;;1.03;0.60;;;;;;;14.20;69.46;100314.91;5029926;28;20768;-66
2021/08/03 00:45:54;;;;;;;0.33;0.20;;;;;;;14.21;69.46;100319.31;5031027;28;20288;-66
2021/08/03 00:48:24;;;;;;;1.80;0.50;;;;;;;14.24;69.54;100324.44;5025224;28;20565;-68
2021/08/03 00:50:53;;;;;;;0.43;0.37;;;;;;;14.24;69.97;100335.25;5026398;28;20205;-67
2021/08/03 00:53:22;;;;;;;0.63;0.60;;;;;;;14.21;70.10;100332.81;5026363;28;20708;-67
2021/08/03 00:55:51;;;;;;;0.40;0.40;;;;;;;14.22;69.54;100331.81;5028079;28;20289;-67
2021/08/03 00:58:19;;;;;;;0.40;0.40;;;;;;;14.22;69.34;100330.97;5029655;28;20221;-67
2021/08/03 01:00:49;;;;;;;0.77;0.50;;;;;;;14.21;69.52;100340.06;5029071;28;20194;-67
2021/08/03 01:03:18;;;;;;;3.03;0.40;;;;;;;14.22;69.61;100336.38;5027948;28;20202;-67
2021/08/03 01:06:01;;;;;;;0.67;0.67;;;;;;;13.90;68.93;100286.09;5035872;28;20743;-67
2021/08/03 01:08:40;;;;;;;0.40;0.40;;;;;;;14.22;69.52;100337.22;5042819;28;20881;-66
2021/08/03 01:11:18;;;;;;;0.40;0.40;;;;;;;14.20;68.70;100344.63;5028237;28;20197;-66
2021/08/03 01:13:59;;;;;;;1.23;0.60;;;;;;;14.13;69.05;100329.09;5026631;28;20333;-66
2021/08/03 01:16:32;;;;;;;4.83;0.50;;;;;;;14.13;69.28;100338.06;5042368;28;20249;-65
2021/08/03 01:19:18;;;;;;;1.47;0.50;;;;;;;14.08;69.40;100340.31;5026188;28;20230;-66
2021/08/03 01:21:51;;;;;;;0.50;0.50;;;;;;;13.96;68.88;100325.19;5028114;28;20213;-65
2021/08/03 01:24:50;;;;;;;0.43;0.30;;;;;;;13.99;69.40;100341.97;5045333;28;21005;-65
2021/08/03 01:27:32;;;;;;;1.77;0.50;;;;;;;13.73;69.15;100311.00;5044332;28;20205;-66
2021/08/03 01:30:03;;;;;;;0.40;0.40;;;;;;;13.86;69.63;100349.44;5030372;28;20288;-65
2021/08/03 01:32:35;;;;;;;0.33;0.33;;;;;;;13.88;68.65;100344.78;5029296;28;20206;-65
2021/08/03 01:35:06;;;;;;;1.07;0.60;;;;;;;13.84;69.37;100355.97;5026228;28;20683;-67
2021/08/03 01:37:36;;;;;;;0.60;0.60;;;;;;;13.81;69.23;100348.16;5029074;28;20272;-67
2021/08/03 01:40:13;;;;;;;0.50;0.50;;;;;;;13.76;68.94;100350.38;5029101;28;20732;-68
2021/08/03 01:42:46;;;;;;;1.37;0.40;;;;;;;13.74;69.21;100355.91;5026364;28;20206;-67
2021/08/03 01:45:19;;;;;;;0.40;0.40;;;;;;;13.72;69.17;100355.19;5044929;28;20214;-67
2021/08/03 01:47:48;;;;;;;0.40;0.40;;;;;;;13.53;69.51;100330.81;5026012;28;20234;-67
2021/08/03 01:50:19;;;;;;;1.13;0.70;;;;;;;13.65;68.93;100354.88;5028879;28;20625;-67
2021/08/03 01:52:56;;;;;;;0.40;0.40;;;;;;;13.58;69.27;100342.06;5024766;28;20631;-67
2021/08/03 01:55:29;;;;;;;0.60;0.60;;;;;;;13.59;68.58;100355.41;5041613;28;20228;-66
2021/08/03 01:58:04;;;;;;;0.40;0.40;;;;;;;13.57;68.47;100356.53;5042840;28;20210;-68
2021/08/03 02:00:54;;;;;;;1.67;0.50;;;;;;;13.52;68.94;100348.84;5028842;28;20201;-66
2021/08/03 02:03:26;;;;;;;0.53;0.53;;;;;;;13.45;69.33;100341.38;5043316;28;20218;-66
2021/08/03 02:06:09;;;;;;;3.10;0.80;;;;;;;13.48;68.65;100349.25;5027666;28;20646;-68
2021/08/03 02:08:40;;;;;;;0.40;0.40;;;;;;;13.44;69.21;100351.31;5045510;28;20210;-68
2021/08/03 02:11:15;;;;;;;0.60;0.60;;;;;;;13.42;68.65;100349.75;5025740;28;20219;-68
2021/08/03 02:13:48;;;;;;;0.60;0.60;;;;;;;13.36;68.86;100357.38;5027335;28;20681;-68
2021/08/03 02:16:32;;;;;;;0.67;0.67;;;;;;;13.10;68.85;100320.97;5028611;28;20264;-67
2021/08/03 02:19:03;;;;;;;0.73;0.60;;;;;;;13.31;69.33;100356.06;5029305;28;20197;-66
2021/08/03 02:21:43;;;;;;;0.60;0.60;;;;;;;13.13;69.43;100336.88;5026596;28;20205;-66
2021/08/03 02:24:14;;;;;;;0.50;0.50;;;;;;;13.31;69.29;100361.47;5028466;28;20201;-68
2021/08/03 02:26:42;;;;;;;0.40;0.40;;;;;;;13.25;68.99;100362.00;5026088;28;20204;-68
2021/08/03 02:29:11;;;;;;;0.50;0.50;;;;;;;13.27;68.71;100362.72;5028676;28;20765;-66
2021/08/03 02:31:47;;;;;;;0.43;0.30;;;;;;;13.23;68.70;100362.13;5044590;28;20201;-67
2021/08/03 02:34:24;;;;;;;0.50;0.50;;;;;;;13.25;68.67;100368.25;5023548;28;20642;-67
2021/08/03 02:36:58;;;;;;;0.40;0.40;;;;;;;13.25;68.54;100375.47;5029349;28;20211;-66
2021/08/03 02:39:28;;;;;;;1.27;0.50;;;;;;;13.23;68.68;100372.06;5028806;28;20205;-68
2021/08/03 02:41:58;;;;;;;0.50;0.50;;;;;;;13.22;69.09;100373.91;5044513;28;20206;-69
2021/08/03 02:44:29;;;;;;;0.30;0.30;;;;;;;13.20;69.19;100375.88;5028084;28;20690;-66
2021/08/03 02:47:06;;;;;;;0.47;0.47;;;;;;;13.19;68.57;100373.31;5029890;28;20709;-67
2021/08/03 02:49:47;;;;;;;0.50;0.50;;;;;;;13.14;69.23;100373.63;5027641;28;20252;-68
2021/08/03 02:52:16;;;;;;;0.53;0.53;;;;;;;12.69;69.19;100300.22;5027237;28;20270;-66
2021/08/03 02:54:49;;;;;;;0.50;0.50;;;;;;;13.13;69.18;100382.72;5025567;28;20279;-68
2021/08/03 02:57:20;;;;;;;3.70;0.40;;;;;;;12.97;68.90;100352.66;5043284;28;20250;-66
2021/08/03 02:59:53;;;;;;;0.33;0.33;;;;;;;13.14;69.06;100386.25;5027977;28;20203;-68
2021/08/03 03:02:27;;;;;;;0.53;0.53;;;;;;;12.89;68.69;100341.66;5028446;28;20851;-68
2021/08/03 03:05:05;;;;;;;0.40;0.40;;;;;;;13.12;68.43;100382.84;5029618;28;20747;-66
2021/08/03 03:07:38;;;;;;;0.83;0.40;;;;;;;13.11;68.81;100391.91;5029107;28;20207;-67
2021/08/03 03:10:13;;;;;;;0.43;0.43;;;;;;;13.11;68.95;100389.22;5028402;28;20221;-68
2021/08/03 03:12:44;;;;;;;2.87;0.47;;;;;;;13.11;68.28;100386.53;5032449;28;20270;-68
2021/08/03 03:15:15;;;;;;;0.43;0.43;;;;;;;13.11;68.54;100386.53;5047284;28;20287;-68
2021/08/03 03:17:46;;;;;;;0.53;0.53;;;;;;;13.11;69.00;100390.06;5044288;28;20195;-68
2021/08/03 03:20:18;;;;;;;0.50;0.50;;;;;;;13.10;68.50;100391.06;5031233;28;20208;-66
2021/08/03 03:22:50;;;;;;;0.47;0.47;;;;;;;13.09;68.68;100389.34;5045746;28;20615;-66
2021/08/03 03:25:21;;;;;;;0.93;0.57;;;;;;;12.98;68.12;100370.53;5031398;28;20201;-67
2021/08/03 03:27:56;;;;;;;0.23;0.23;;;;;;;13.06;68.32;100386.91;5033305;28;20202;-66
2021/08/03 03:30:27;;;;;;;0.40;0.40;;;;;;;13.06;68.87;100393.16;5029372;28;20234;-67
2021/08/03 03:33:02;;;;;;;0.30;0.30;;;;;;;13.05;68.48;100388.75;5029452;28;20212;-66
2021/08/03 03:35:36;;;;;;;0.33;0.33;;;;;;;13.10;67.81;100392.91;5029872;28;20261;-67
2021/08/03 03:38:06;;;;;;;0.50;0.50;;;;;;;13.09;68.32;100391.19;5029614;28;20208;-69
2021/08/03 03:40:35;;;;;;;0.30;0.30;;;;;;;13.08;67.96;100398.44;5031220;28;20205;-67
2021/08/03 03:43:04;;;;;;;0.30;0.30;;;;;;;13.09;68.43;100400.13;5030387;28;20199;-68
2021/08/03 03:45:35;;;;;;;1.67;0.50;;;;;;;12.74;68.01;100339.25;5031839;28;20216;-66
2021/08/03 03:48:13;;;;;;;0.47;0.47;;;;;;;13.13;67.64;100401.59;5045696;28;20566;-68
2021/08/03 03:50:46;;;;;;;4.43;0.40;;;;;;;13.13;67.84;100409.66;5044522;28;20212;-67
2021/08/03 03:53:19;;;;;;;0.30;0.30;;;;;;;13.14;67.62;100413.22;5045062;28;20203;-68
2021/08/03 03:55:51;;;;;;;0.43;0.43;;;;;;;13.11;67.84;100400.84;5030160;28;20240;-68
2021/08/03 03:58:22;;;;;;;0.50;0.50;;;;;;;13.15;67.73;100404.16;5046160;28;20278;-68
2021/08/03 04:00:50;;;;;;;0.50;0.50;;;;;;;13.19;67.40;100401.13;5031885;28;20219;-68
2021/08/03 04:03:23;;;;;;;0.60;0.60;;;;;;;13.06;67.37;100384.22;5030908;28;20236;-66
2021/08/03 04:05:54;;;;;;;0.40;0.40;;;;;;;13.26;67.83;100407.72;5048546;28;20201;-66
2021/08/03 04:08:24;;;;;;;0.40;0.40;;;;;;;13.35;67.99;100416.84;5030496;28;20209;-68
2021/08/03 04:11:01;;;;;;;0.60;0.60;;;;;;;13.42;68.02;100414.50;5030612;28;20206;-66
2021/08/03 04:13:29;;;;;;;0.30;0.30;;;;;;;13.45;67.55;100411.53;5029057;28;20868;-67
2021/08/03 04:15:58;;;;;;;1.33;0.53;;;;;;;13.29;67.43;100372.38;5029465;28;20286;-68
2021/08/03 04:18:28;;;;;;;0.57;0.50;;;;;;;13.70;67.18;100410.28;5029124;28;20850;-68
2021/08/03 04:20:57;;;;;;;0.50;0.50;;;;;;;13.78;66.99;100416.75;5030152;28;20190;-68
2021/08/03 04:23:25;;;;;;;0.43;0.43;;;;;;;13.82;66.81;100415.50;5029356;28;20754;-66
2021/08/03 04:25:53;;;;;;;0.33;0.30;;;;;;;13.89;66.18;100426.63;5029789;28;20202;-66
2021/08/03 04:28:21;;;;;;;0.90;0.67;;;;;;;13.92;66.47;100421.81;5031371;28;20197;-68
2021/08/03 04:30:50;;;;;;;5.30;0.70;;;;;;;13.97;66.40;100422.25;5031440;28;20206;-66
2021/08/03 04:33:18;;;;;;;0.50;0.50;;;;;;;14.05;65.65;100426.13;5029372;28;20659;-66
2021/08/03 04:35:47;;;;;;;1.60;0.60;;;;;;;14.09;66.33;100427.59;5027126;28;20226;-66
2021/08/03 04:38:15;;;;;;;0.40;0.40;;;;;;;14.12;65.43;100424.63;5030265;28;20211;-67
2021/08/03 04:40:44;;;;;;;0.30;0.30;;;;;;;14.19;65.22;100428.47;5028986;28;20579;-66
2021/08/03 04:43:12;;;;;;;0.50;0.50;;;;;;;14.21;65.59;100421.09;5029731;28;20628;-68
2021/08/03 04:45:40;;;;;;;0.50;0.50;;;;;;;14.29;64.81;100424.81;5030436;28;20203;-68
2021/08/03 04:48:08;;;;;;;0.47;0.47;;;;;;;14.36;64.93;100432.38;5031661;28;20256;-68
2021/08/03 04:50:36;;;;;;;0.60;0.47;;;;;;;14.34;65.38;100437.91;5028929;28;20300;-68
2021/08/03 04:53:06;;;;;;;0.73;0.73;;;;;;;14.42;64.63;100454.31;5027250;28;20202;-68
2021/08/03 04:55:34;;;;;;;0.40;0.40;;;;;;;14.47;64.86;100443.13;5029599;28;20703;-68
2021/08/03 04:58:02;;;;;;;1.23;0.30;;;;;;;14.40;64.20;100423.03;5028842;28;20214;-68
2021/08/03 05:00:30;;;;;;;0.40;0.40;;;;;;;14.55;64.61;100441.47;5030372;28;20217;-66
2021/08/03 05:02:58;;;;;;;0.50;0.50;;;;;;;14.60;64.19;100443.75;5029051;28;20203;-66
2021/08/03 05:05:27;;;;;;;0.50;0.50;;;;;;;14.63;64.47;100442.59;5023845;28;20618;-67
2021/08/03 05:07:58;;;;;;;0.57;0.57;;;;;;;14.57;64.17;100442.16;5021754;28;20248;-66
2021/08/03 05:10:29;;;;;;;0.40;0.40;;;;;;;14.71;63.77;100459.88;5020378;28;20684;-66
2021/08/03 05:12:58;;;;;;;0.43;0.43;;;;;;;14.68;64.55;100464.66;5023508;28;20656;-68
2021/08/03 05:15:27;;;;;;;2.60;0.53;;;;;;;14.70;64.68;100465.41;5014414;28;20265;-68
2021/08/03 05:17:55;;;;;;;0.50;0.50;;;;;;;14.65;64.22;100463.09;5031056;28;20207;-67
2021/08/03 05:20:24;;;;;;;3.23;0.53;;;;;;;14.69;64.32;100469.09;5031041;28;20286;-68
2021/08/03 05:22:52;;;;;;;0.50;0.50;;;;;;;14.72;64.50;100479.66;5030899;28;20202;-67
2021/08/03 05:25:20;;;;;;;0.60;0.60;;;;;;;14.78;64.94;100466.44;5030940;28;20834;-66
2021/08/03 05:27:50;;;;;;;0.50;0.50;;;;;;;14.94;64.46;100479.41;5030572;28;20202;-68
2021/08/03 05:30:18;;;;;;;0.70;0.60;;;;;;;15.19;64.81;100473.50;5030524;28;20606;-68
2021/08/03 05:32:49;;;;;;;0.40;0.40;;;;;;;15.49;64.09;100480.63;5030750;28;20675;-68
2021/08/03 05:35:17;;;;;;;0.93;0.50;;;;;;;15.67;63.90;100467.28;5030435;28;20293;-68
2021/08/03 05:37:45;;;;;;;0.50;0.50;;;;;;;16.04;63.54;100472.78;5030501;28;20237;-66
2021/08/03 05:40:14;;;;;;;0.40;0.40;;;;;;;16.17;62.65;100436.38;5030863;28;20549;-67
2021/08/03 05:42:42;;;;;;;2.10;0.60;;;;;;;16.64;61.84;100467.03;5030179;28;20624;-68
2021/08/03 05:45:13;;;;;;;0.60;0.60;;;;;;;16.81;62.59;100455.41;5030509;28;20262;-68
2021/08/03 05:47:42;;;;;;;5.67;0.70;;;;;;;16.95;61.59;100430.47;5026767;28;20195;-69
2021/08/03 05:50:11;;;;;;;0.50;0.50;;;;;;;17.34;61.67;100470.91;5020416;28;20201;-69
2021/08/03 05:52:39;;;;;;;0.50;0.50;;;;;;;17.57;60.42;100461.31;5030037;28;20206;-66
2021/08/03 05:55:08;;;;;;;0.50;0.50;;;;;;;17.83;60.67;100460.53;5029996;28;20198;-66
2021/08/03 05:57:37;;;;;;;0.40;0.40;;;;;;;18.16;60.03;100462.47;5029025;28;20710;-67
2021/08/03 06:00:06;;;;;;;0.50;0.50;;;;;;;18.42;58.88;100478.78;5017712;28;20198;-68
2021/08/03 06:02:41;;;;;;;1.10;0.40;;;;;;;18.65;56.69;100481.81;5029970;28;20222;-67
2021/08/03 06:05:11;;;;;;;0.57;0.40;;;;;;;18.64;57.26;100458.34;5028775;28;20232;-68
2021/08/03 06:07:43;;;;;;;0.60;0.60;;;;;;;19.04;56.97;100486.75;5029739;28;20208;-66
2021/08/03 06:10:14;;;;;;;0.50;0.50;;;;;;;19.32;56.08;100488.22;5017086;28;20241;-67
2021/08/03 06:12:46;;;;;;;0.50;0.50;;;;;;;19.41;55.47;100491.78;5029855;28;20199;-66
2021/08/03 06:15:15;;;;;;;2.43;0.70;;;;;;;19.53;55.34;100491.31;5012383;28;20290;-68
2021/08/03 06:17:50;;;;;;;0.50;0.50;;;;;;;19.60;54.95;100501.56;5029561;28;20562;-67
2021/08/03 06:20:19;;;;;;;0.40;0.40;;;;;;;19.31;54.85;100494.69;5027812;28;20234;-68
2021/08/03 06:22:47;;;;;;;3.30;0.63;;;;;;;19.47;54.83;100491.97;5016927;28;20218;-68
2021/08/03 06:25:16;;;;;;;0.57;0.40;;;;;;;19.35;55.04;100496.03;5029686;28;20202;-67
2021/08/03 06:27:45;;;;;;;0.40;0.40;;;;;;;19.23;54.90;100454.63;5029375;28;20198;-67
2021/08/03 06:30:13;;;;;;;0.50;0.50;;;;;;;19.36;54.59;100484.13;5029545;28;20241;-68
2021/08/03 06:32:44;;;;;;;0.50;0.50;;;;;;;19.29;53.72;100498.59;5029488;28;20309;-68
2021/08/03 06:35:15;;;;;;;0.47;0.47;;;;;;;18.97;53.14;100499.28;5029742;28;20660;-68
2021/08/03 06:37:43;;;;;;;0.50;0.50;;;;;;;18.93;54.05;100496.91;5029222;28;20227;-68
2021/08/03 06:40:14;;;;;;;0.50;0.50;;;;;;;18.87;54.12;100497.56;5029596;28;20568;-68
2021/08/03 06:42:47;;;;;;;0.40;0.40;;;;;;;18.98;54.48;100507.34;5029276;28;20305;-66
2021/08/03 06:45:21;;;;;;;0.50;0.50;;;;;;;19.06;53.42;100510.06;5028715;28;20203;-66
2021/08/03 06:48:01;;;;;;;0.30;0.30;;;;;;;19.01;53.22;100465.31;5029609;28;20206;-66
2021/08/03 06:50:33;;;;;;;0.40;0.40;;;;;;;19.23;53.20;100511.81;5028080;28;20306;-68
2021/08/03 06:53:02;;;;;;;0.43;0.43;;;;;;;19.36;53.33;100511.38;5029263;28;20310;-69
2021/08/03 06:55:32;;;;;;;0.50;0.50;;;;;;;19.43;53.44;100512.41;5029323;28;20286;-68
2021/08/03 06:58:04;;;;;;;1.93;0.50;;;;;;;19.43;53.32;100517.84;5029205;28;20233;-67
2021/08/03 07:00:37;;;;;;;1.70;0.50;;;;;;;19.34;53.93;100496.22;5029311;28;20205;-66
2021/08/03 07:03:08;;;;;;;1.07;0.50;;;;;;;19.51;53.55;100520.56;5029683;28;20197;-68
2021/08/03 07:05:42;;;;;;;0.60;0.60;;;;;;;19.56;54.10;100519.25;5029220;28;20249;-68
2021/08/03 07:08:12;;;;;;;0.50;0.50;;;;;;;19.79;53.88;100528.50;5028977;28;20281;-67
2021/08/03 07:10:40;;;;;;;3.63;0.70;;;;;;;19.98;52.83;100533.63;5029508;28;20298;-68
2021/08/03 07:13:09;;;;;;;0.40;0.40;;;;;;;19.93;52.95;100495.13;5029161;28;20214;-69
2021/08/03 07:15:39;;;;;;;0.40;0.40;;;;;;;20.31;52.13;100533.59;5029063;28;20213;-68
2021/08/03 07:18:11;;;;;;;0.50;0.50;;;;;;;20.43;51.85;100530.38;5027754;28;20228;-69
2021/08/03 07:20:43;;;;;;;0.80;0.50;;;;;;;20.70;51.28;100537.31;5023060;28;20212;-67
2021/08/03 07:23:12;;;;;;;0.90;0.63;;;;;;;20.72;51.25;100523.50;5023249;28;20574;-66
2021/08/03 07:25:41;;;;;;;0.53;0.50;;;;;;;20.92;50.12;100526.69;5025581;28;20200;-67
2021/08/03 07:28:09;;;;;;;0.50;0.50;;;;;;;21.22;50.43;100531.31;5027064;28;20195;-68
2021/08/03 07:30:37;;;;;;;0.50;0.50;;;;;;;21.34;49.53;100523.59;5027187;28;20230;-69
2021/08/03 07:33:05;;;;;;;0.40;0.40;;;;;;;21.53;49.14;100530.50;5025044;28;20213;-67
2021/08/03 07:35:35;;;;;;;0.50;0.50;;;;;;;21.36;48.30;100519.66;5024645;28;20214;-69
2021/08/03 07:38:03;;;;;;;0.50;0.50;;;;;;;21.82;48.74;100538.84;5025089;28;20235;-69
2021/08/03 07:40:31;;;;;;;1.77;0.50;;;;;;;21.93;46.73;100537.56;5025978;28;20199;-68
2021/08/03 07:43:00;;;;;;;0.20;0.20;;;;;;;21.70;46.12;100532.94;5026575;28;20195;-67
2021/08/03 07:45:28;;;;;;;0.50;0.50;;;;;;;21.90;46.61;100544.25;5028394;28;20286;-69
2021/08/03 07:47:58;;;;;;;0.50;0.50;;;;;;;22.10;46.09;100536.44;5041079;28;20618;-69
2021/08/03 07:50:27;;;;;;;0.40;0.40;;;;;;;22.48;46.03;100537.28;5023826;28;20194;-67
2021/08/03 07:52:56;;;;;;;0.40;0.40;;;;;;;22.82;44.78;100534.03;5020483;28;20632;-67
2021/08/03 07:55:24;;;;;;;1.20;0.50;;;;;;;22.91;43.86;100540.25;5023487;28;20615;-69
2021/08/03 07:57:53;;;;;;;0.40;0.30;;;;;;;22.93;42.49;100533.56;5027117;28;20584;-69
2021/08/03 08:00:21;;;;;;;0.30;0.30;;;;;;;22.81;41.44;100529.59;5030784;28;20278;-69
2021/08/03 08:02:49;;;;;;;2.00;0.40;;;;;;;23.24;41.42;100533.34;5030016;28;20221;-69
2021/08/03 08:05:18;;;;;;;2.90;0.40;;;;;;;23.66;42.73;100541.91;5031623;28;20560;-69
2021/08/03 08:07:46;;;;;;;0.50;0.50;;;;;;;24.07;42.65;100536.59;5031355;28;20203;-69
2021/08/03 08:10:16;;;;;;;0.60;0.60;;;;;;;24.52;42.98;100534.50;5026075;28;20278;-69
2021/08/03 08:12:44;;;;;;;0.23;0.23;;;;;;;24.82;40.97;100538.72;5018009;28;20198;-68
2021/08/03 08:15:13;;;;;;;0.93;0.27;;;;;;;25.02;39.53;100534.19;5014922;28;20264;-69
2021/08/03 08:17:41;;;;;;;0.20;0.20;;;;;;;24.38;35.27;100537.13;5031211;28;20638;-69
2021/08/03 08:20:13;;;;;;;0.20;0.20;;;;;;;24.14;34.93;100534.78;5031025;28;20203;-67
2021/08/03 08:22:42;;;;;;;0.10;0.10;;;;;;;24.44;35.70;100540.97;5019144;28;20225;-67
2021/08/03 08:25:12;;;;;;;0.30;0.30;;;;;;;24.70;34.87;100543.91;5021147;28;20304;-67
2021/08/03 08:27:43;;;;;;;0.83;0.23;;;;;;;24.79;35.42;100539.09;5021733;28;20197;-67
2021/08/03 08:30:12;;;;;;;0.30;0.30;;;;;;;24.91;33.03;100531.16;5021237;28;20345;-68
2021/08/03 08:32:42;;;;;;;0.60;0.47;;;;;;;25.20;36.69;100532.81;5016518;28;20219;-68
2021/08/03 08:35:30;;;;;;;0.20;0.20;;;;;;;25.49;34.80;100538.03;5018920;28;20273;-68
2021/08/03 08:37:59;;;;;;;2.60;0.40;;;;;;;25.68;33.52;100537.25;5016294;28;20235;-68
2021/08/03 08:40:27;;;;;;;0.30;0.30;;;;;;;25.48;33.03;100541.81;5042001;28;20355;-67
2021/08/03 08:42:57;;;;;;;0.43;0.40;;;;;;;25.38;33.88;100541.34;5026464;28;20200;-69
2021/08/03 08:45:26;;;;;;;0.20;0.20;;;;;;;25.42;33.12;100539.06;5018601;28;20302;-69
2021/08/03 08:47:54;;;;;;;0.20;0.20;;;;;;;25.46;33.30;100510.94;5016701;28;20852;-69
2021/08/03 08:50:25;;;;;;;2.53;0.32;;;;;;;25.77;31.38;100542.59;5017034;28;20200;-69
2021/08/03 08:52:56;;;;;;;0.25;0.25;;;;;;;26.21;33.08;100542.84;5017758;28;20211;-69
2021/08/03 08:55:25;;;;;;;0.40;0.40;;;;;;;26.14;32.23;100539.25;5016381;28;20204;-67
2021/08/03 08:57:53;;;;;;;0.30;0.30;;;;;;;26.40;32.26;100551.38;5018018;28;20298;-67
2021/08/03 09:00:24;;;;;;;0.25;0.20;;;;;;;26.53;33.47;100548.59;5016086;28;20618;-67
2021/08/03 09:02:53;;;;;;;0.32;0.32;;;;;;;26.04;33.39;100526.97;5018525;28;20291;-69
2021/08/03 09:05:31;;;;;;;0.20;0.20;;;;;;;25.77;33.59;100545.34;5025530;28;20722;-67
2021/08/03 09:08:01;;;;;;;0.35;0.35;;;;;;;25.43;33.48;100543.50;5025619;28;20202;-67
2021/08/03 09:10:35;;;;;;;0.22;0.20;;;;;;;25.19;32.49;100544.88;5030374;28;20198;-68
2021/08/03 09:13:06;;;;;;;0.32;0.32;;;;;;;25.20;34.23;100549.31;5028293;28;20589;-68
2021/08/03 09:15:38;;;;;;;1.30;0.50;;;;;;;25.10;34.20;100548.81;5016991;28;20195;-66
2021/08/03 09:18:27;;;;;;;0.30;0.30;;;;;;;24.85;34.33;100548.47;5031081;28;20229;-66
2021/08/03 09:20:57;;;;;;;0.20;0.20;;;;;;;24.51;33.65;100554.78;5018088;28;20198;-69
2021/08/03 09:23:40;;;;;;;0.30;0.30;;;;;;;24.32;34.48;100556.28;5030588;28;20229;-68
2021/08/03 09:26:10;;;;;;;0.47;0.30;;;;;;;24.36;35.06;100555.69;5022658;28;20203;-69
2021/08/03 09:28:56;;;;;;;2.20;0.40;;;;;;;24.53;34.34;100560.91;5011237;28;20504;-68
2021/08/03 09:31:26;;;;;;;0.37;0.37;;;;;;;24.66;33.44;100555.50;5024840;28;20235;-69
2021/08/03 09:33:57;;;;;;;0.67;0.30;;;;;;;25.07;33.18;100556.44;5026825;28;20279;-68
2021/08/03 09:36:52;;;;;;;0.10;0.10;;;;;;;25.52;30.71;100550.50;5027662;28;20751;-67
2021/08/03 09:39:38;;;;;;;1.13;0.52;;;;;;;25.49;32.80;100554.53;5039435;28;20218;-66
2021/08/03 09:42:10;;;;;;;0.45;0.45;;;;;;;25.76;30.18;100552.75;5025962;28;20228;-67
2021/08/03 09:44:47;;;;;;;0.20;0.20;;;;;;;25.48;32.39;100558.31;5028622;28;20206;-66
2021/08/03 09:47:17;;;;;;;0.40;0.40;;;;;;;25.90;31.97;100545.34;5025340;28;20224;-67
2021/08/03 09:49:51;;;;;;;0.60;0.60;;;;;;;26.38;31.30;100564.50;5026798;28;20219;-67
2021/08/03 09:52:22;;;;;;;0.45;0.45;;;;;;;26.47;30.81;100564.06;5027634;28;20244;-67
2021/08/03 09:54:50;;;;;;;0.20;0.20;;;;;;;26.23;31.11;100561.91;5026826;28;20479;-67
2021/08/03 09:57:22;;;;;;;0.10;0.10;;;;;;;25.84;30.94;100565.44;5029395;28;20199;-67
2021/08/03 09:59:51;;;;;;;0.40;0.40;;;;;;;25.92;32.87;100568.00;5029548;28;20779;-67
2021/08/03 10:02:22;;;;;;;0.20;0.20;;;;;;;25.70;31.68;100567.31;5026112;28;20206;-67
2021/08/03 10:04:51;;;;;;;0.20;0.20;;;;;;;25.88;32.68;100555.72;5028311;28;20203;-67
2021/08/03 10:07:20;;;;;;;0.25;0.25;;;;;;;26.00;31.34;100548.53;5026115;28;20202;-67
2021/08/03 10:09:51;;;;;;;0.75;0.38;;;;;;;25.83;30.91;100559.09;5025949;28;20207;-67
2021/08/03 10:12:20;;;;;;;0.40;0.40;;;;;;;26.16;31.07;100561.91;5027560;28;20199;-66
2021/08/03 10:14:49;;;;;;;0.30;0.30;;;;;;;26.66;31.18;100562.38;5026105;28;20594;-68
2021/08/03 10:17:23;;;;;;;0.15;0.15;;;;;;;25.68;30.29;100562.00;5027473;28;20194;-66
2021/08/03 10:19:59;;;;;;;0.17;0.17;;;;;;;25.56;29.87;100574.66;5040998;28;20857;-68
2021/08/03 10:22:30;;;;;;;0.30;0.30;;;;;;;25.15;29.54;100577.44;5023864;28;20199;-67
2021/08/03 10:25:02;;;;;;;0.30;0.30;;;;;;;24.85;29.94;100579.53;5026773;28;20396;-67
2021/08/03 10:27:44;;;;;;;0.10;0.10;;;;;;;24.90;30.52;100582.53;5027107;28;20199;-68
2021/08/03 10:30:35;;;;;;;0.20;0.20;;;;;;;24.64;29.91;100579.59;5028159;28;20292;-68
2021/08/03 10:33:10;;;;;;;0.30;0.30;;;;;;;24.33;31.28;100571.72;5036917;28;20207;-68
2021/08/03 10:35:42;;;;;;;0.30;0.30;;;;;;;24.33;31.30;100572.56;5022829;28;20206;-68
2021/08/03 10:38:13;;;;;;;0.30;0.30;;;;;;;24.75;31.30;100559.78;5022300;28;20199;-68
2021/08/03 10:41:18;;;;;;;1.10;0.20;;;;;;;24.90;30.08;100574.28;5024417;28;20722;-68
2021/08/03 10:43:53;;;;;;;0.30;0.30;;;;;;;24.85;30.84;100565.78;5024666;28;20197;-67
2021/08/03 10:46:39;;;;;;;0.60;0.60;;;;;;;24.62;30.11;100577.03;5043320;28;20749;-67
2021/08/03 10:49:11;;;;;;;0.80;0.80;;;;;;;24.41;30.46;100572.41;5027886;28;20190;-68
2021/08/03 10:51:40;;;;;;;0.33;0.33;;;;;;;24.75;31.89;100587.25;5026138;28;20202;-67
2021/08/03 10:54:11;;;;;;;0.30;0.20;;;;;;;25.03;31.60;100574.38;5025959;28;20199;-67
2021/08/03 10:57:22;;;;;;;0.30;0.30;;;;;;;25.49;30.58;100575.69;5027272;28;20206;-67
2021/08/03 11:00:04;;;;;;;0.17;0.17;;;;;;;25.55;29.15;100572.94;5039800;28;20778;-67
2021/08/03 11:02:44;;;;;;;0.20;0.20;;;;;;;25.87;30.39;100579.66;5025047;28;20691;-67
2021/08/03 11:05:34;;;;;;;0.32;0.32;;;;;;;26.07;29.06;100585.19;5025142;28;20711;-66
2021/08/03 11:08:30;;;;;;;0.22;0.22;;;;;;;25.75;30.29;100585.97;5025958;28;20198;-67
2021/08/03 11:11:05;;;;;;;0.20;0.20;;;;;;;25.53;31.24;100579.72;5013597;28;20238;-66
2021/08/03 11:13:45;;;;;;;3.30;0.32;;;;;;;25.16;32.02;100594.78;5027934;28;20294;-66
2021/08/03 11:16:44;;;;;;;0.20;0.20;;;;;;;24.82;31.54;100585.44;5027466;28;20222;-66
2021/08/03 11:19:30;;;;;;;0.30;0.30;;;;;;;24.48;30.93;100568.88;5022479;28;20203;-67
2021/08/03 11:22:00;;;;;;;0.30;0.30;;;;;;;24.54;31.42;100581.84;5025628;28;20199;-66
2021/08/03 11:24:35;;;;;;;0.30;0.30;;;;;;;24.54;31.28;100595.56;5026322;28;20209;-65
2021/08/03 11:27:03;;;;;;;0.40;0.40;;;;;;;24.52;31.97;100592.16;5027106;28;20198;-65
2021/08/03 11:29:37;;;;;;;0.20;0.20;;;;;;;24.34;30.68;100596.22;5024613;28;20284;-65
2021/08/03 11:32:07;;;;;;;0.30;0.30;;;;;;;24.21;31.85;100585.09;5042409;28;20241;-65
2021/08/03 11:34:38;;;;;;;0.50;0.50;;;;;;;24.08;31.83;100583.06;5031198;28;20252;-65
2021/08/03 11:37:14;;;;;;;1.20;0.60;;;;;;;23.70;32.21;100574.22;5030230;28;20714;-70
2021/08/03 11:39:53;;;;;;;1.17;0.53;;;;;;;24.32;33.47;100595.56;5030844;28;20229;-65
2021/08/03 11:42:31;;;;;;;2.03;0.30;;;;;;;24.86;32.93;100602.38;5029736;28;20562;-65
2021/08/03 11:45:12;;;;;;;0.10;0.10;;;;;;;24.98;32.62;100587.88;5029694;28;20194;-66
2021/08/03 11:47:46;;;;;;;0.38;0.30;;;;;;;25.24;31.97;100603.69;5028465;28;20249;-65